createdAt,value
2022-12-03T00:00:47.598Z,19.00
2022-12-03T00:03:15.836Z,18.13
2022-12-03T00:05:48.878Z,19.50
2022-12-03T00:08:17.049Z,19.60
2022-12-03T00:10:46.157Z,21.07
2022-12-03T00:13:13.820Z,21.93
2022-12-03T00:15:41.535Z,19.47
2022-12-03T00:18:09.222Z,17.17
2022-12-03T00:20:37.320Z,19.97
2022-12-03T00:23:05.255Z,17.23
2022-12-03T00:25:32.903Z,20.33
2022-12-03T00:28:02.019Z,18.90
2022-12-03T00:30:29.951Z,18.27
2022-12-03T00:32:57.597Z,19.10
2022-12-03T00:35:25.321Z,23.70
2022-12-03T00:37:52.985Z,18.30
2022-12-03T00:40:20.732Z,19.90
2022-12-03T00:42:48.378Z,19.13
2022-12-03T00:45:17.716Z,20.03
2022-12-03T00:47:46.059Z,18.90
2022-12-03T00:50:13.762Z,18.83
2022-12-03T00:52:41.448Z,20.03
2022-12-03T00:55:10.034Z,19.93
2022-12-03T00:57:37.877Z,21.30
2022-12-03T01:00:07.337Z,20.60
2022-12-03T01:02:36.629Z,19.93
2022-12-03T01:05:04.664Z,21.03
2022-12-03T01:07:32.393Z,20.43
2022-12-03T01:10:00.169Z,22.27
2022-12-03T01:12:27.835Z,20.83
2022-12-03T01:14:55.821Z,23.10
2022-12-03T01:17:24.113Z,21.57
2022-12-03T01:19:53.198Z,19.80
2022-12-03T01:22:21.034Z,23.03
2022-12-03T01:24:48.804Z,19.77
2022-12-03T01:27:16.490Z,20.13
2022-12-03T01:29:44.160Z,21.43
2022-12-03T01:32:17.043Z,21.73
2022-12-03T01:34:44.902Z,23.03
2022-12-03T01:37:14.297Z,21.33
2022-12-03T01:39:42.548Z,21.57
2022-12-03T01:42:14.347Z,24.23
2022-12-03T01:44:42.323Z,22.17
2022-12-03T01:47:14.748Z,22.83
2022-12-03T01:49:44.721Z,23.27
2022-12-03T01:52:16.886Z,23.60
2022-12-03T01:54:48.298Z,23.27
2022-12-03T01:57:22.518Z,24.57
2022-12-03T01:59:50.811Z,23.93
2022-12-03T02:02:23.549Z,24.73
2022-12-03T02:04:53.146Z,24.63
2022-12-03T02:07:25.574Z,27.47
2022-12-03T02:09:54.673Z,24.63
2022-12-03T02:12:26.314Z,24.10
2022-12-03T02:14:55.565Z,23.47
2022-12-03T02:17:23.595Z,25.90
2022-12-03T02:19:52.154Z,26.07
2022-12-03T02:22:39.013Z,25.50
2022-12-03T02:25:22.194Z,28.03
2022-12-03T02:27:50.706Z,26.67
2022-12-03T02:30:21.208Z,26.23
2022-12-03T02:32:49.384Z,25.07
2022-12-03T02:35:18.968Z,25.33
2022-12-03T02:37:49.279Z,23.30
2022-12-03T02:40:23.743Z,28.20
2022-12-03T02:42:54.119Z,24.93
2022-12-03T02:45:25.015Z,26.80
2022-12-03T02:47:55.750Z,27.57
2022-12-03T02:50:28.447Z,24.67
2022-12-03T02:52:58.549Z,28.53
2022-12-03T02:55:33.476Z,28.80
2022-12-03T02:58:05.880Z,28.13
2022-12-03T03:00:34.492Z,26.50
2022-12-03T03:03:03.567Z,29.40
2022-12-03T03:05:31.894Z,29.70
2022-12-03T03:08:01.711Z,27.37
2022-12-03T03:10:31.428Z,28.93
2022-12-03T03:12:59.683Z,23.80
2022-12-03T03:15:27.456Z,26.33
2022-12-03T03:17:55.724Z,27.83
2022-12-03T03:20:23.464Z,27.53
2022-12-03T03:22:51.095Z,30.47
2022-12-03T03:25:22.381Z,26.50
2022-12-03T03:27:51.639Z,30.33
2022-12-03T03:30:19.372Z,28.73
2022-12-03T03:32:47.080Z,30.67
2022-12-03T03:35:14.937Z,29.07
2022-12-03T03:37:43.309Z,27.80
2022-12-03T03:40:11.908Z,31.00
2022-12-03T03:42:40.124Z,27.73
2022-12-03T03:45:10.817Z,31.00
2022-12-03T03:47:40.043Z,25.97
2022-12-03T03:50:10.147Z,29.10
2022-12-03T03:52:39.278Z,27.50
2022-12-03T03:55:08.872Z,31.03
2022-12-03T03:57:36.914Z,28.03
2022-12-03T04:00:08.376Z,29.83
2022-12-03T04:02:38.693Z,29.93
2022-12-03T04:05:07.736Z,33.50
2022-12-03T04:07:35.410Z,30.07
2022-12-03T04:10:24.212Z,28.73
2022-12-03T04:12:56.671Z,32.60
2022-12-03T04:15:24.644Z,30.23
2022-12-03T04:18:07.791Z,30.90
2022-12-03T04:20:35.768Z,29.37
2022-12-03T04:23:02.959Z,30.53
2022-12-03T04:25:48.316Z,31.93
2022-12-03T04:28:33.879Z,30.40
2022-12-03T04:31:21.650Z,29.43
2022-12-03T04:34:08.489Z,31.10
2022-12-03T04:36:36.618Z,33.73
2022-12-03T04:39:04.977Z,33.63
2022-12-03T04:41:32.718Z,28.47
2022-12-03T04:44:18.059Z,33.90
2022-12-03T04:47:01.375Z,33.17
2022-12-03T04:49:31.121Z,31.63
2022-12-03T04:51:58.867Z,34.07
2022-12-03T04:54:26.871Z,32.43
2022-12-03T04:56:54.612Z,32.67
2022-12-03T04:59:22.491Z,28.73
2022-12-03T05:01:50.289Z,30.87
2022-12-03T05:04:18.021Z,31.50
2022-12-03T05:06:47.111Z,32.83
2022-12-03T05:09:16.364Z,32.63
2022-12-03T05:11:44.778Z,33.70
2022-12-03T05:14:13.043Z,32.07
2022-12-03T05:16:40.893Z,33.90
2022-12-03T05:19:09.932Z,29.47
2022-12-03T05:21:37.749Z,37.10
2022-12-03T05:24:07.494Z,37.60
2022-12-03T05:26:35.321Z,30.80
2022-12-03T05:29:03.304Z,31.47
2022-12-03T05:31:31.131Z,33.67
2022-12-03T05:33:59.041Z,35.87
2022-12-03T05:36:26.742Z,32.43
2022-12-03T05:38:54.403Z,31.30
2022-12-03T05:41:40.877Z,36.90
2022-12-03T05:44:08.865Z,34.10
2022-12-03T05:46:36.692Z,34.03
2022-12-03T05:49:04.434Z,34.10
2022-12-03T05:51:33.263Z,36.20
2022-12-03T05:54:00.951Z,37.13
2022-12-03T05:56:30.064Z,35.50
2022-12-03T05:58:57.793Z,33.73
2022-12-03T06:01:25.854Z,33.73
2022-12-03T06:03:53.608Z,32.43
2022-12-03T06:06:21.435Z,38.10
2022-12-03T06:08:50.685Z,35.57
2022-12-03T06:11:18.677Z,33.83
2022-12-03T06:13:47.660Z,30.90
2022-12-03T06:16:15.483Z,34.57
2022-12-03T06:18:43.210Z,33.67
2022-12-03T06:21:10.856Z,32.17
2022-12-03T06:23:44.447Z,34.50
2022-12-03T06:26:12.242Z,32.67
2022-12-03T06:28:40.133Z,33.93
2022-12-03T06:31:09.162Z,31.43
2022-12-03T06:33:36.910Z,31.53
2022-12-03T06:36:05.856Z,31.23
2022-12-03T06:38:33.531Z,31.33
2022-12-03T06:41:01.228Z,28.90
2022-12-03T06:43:30.824Z,32.50
2022-12-03T06:45:58.678Z,31.10
2022-12-03T06:48:27.731Z,30.70
2022-12-03T06:50:55.649Z,30.10
2022-12-03T06:53:23.610Z,30.50
2022-12-03T06:55:51.340Z,32.63
2022-12-03T06:58:19.045Z,32.93
2022-12-03T07:00:47.161Z,31.37
2022-12-03T07:03:15.073Z,33.97
2022-12-03T07:05:44.193Z,32.10
2022-12-03T07:08:11.981Z,30.43
2022-12-03T07:10:39.755Z,30.90
2022-12-03T07:13:07.382Z,28.43
2022-12-03T07:15:35.055Z,27.20
2022-12-03T07:18:02.750Z,27.07
2022-12-03T07:20:30.594Z,29.97
2022-12-03T07:23:00.043Z,28.33
2022-12-03T07:25:27.879Z,27.47
2022-12-03T07:27:55.879Z,25.40
2022-12-03T07:30:25.806Z,26.83
2022-12-03T07:32:53.660Z,25.27
2022-12-03T07:35:21.596Z,29.20
2022-12-03T07:37:49.305Z,27.70
2022-12-03T07:40:18.738Z,26.83
2022-12-03T07:42:46.399Z,28.40
2022-12-03T07:45:14.179Z,25.30
2022-12-03T07:47:42.020Z,23.50
2022-12-03T07:50:12.189Z,24.43
2022-12-03T07:52:40.043Z,26.27
2022-12-03T07:55:08.528Z,25.20
2022-12-03T07:57:37.999Z,24.43
2022-12-03T08:00:07.581Z,25.47
2022-12-03T08:02:37.819Z,24.53
2022-12-03T08:05:06.372Z,26.93
2022-12-03T08:07:34.130Z,26.67
2022-12-03T08:10:02.674Z,24.80
2022-12-03T08:12:40.811Z,24.67
2022-12-03T08:15:15.853Z,27.20
2022-12-03T08:17:45.576Z,25.63
2022-12-03T08:20:16.708Z,25.80
2022-12-03T08:22:46.131Z,24.70
2022-12-03T08:25:18.200Z,24.10
2022-12-03T08:27:46.105Z,26.20
2022-12-03T08:30:17.957Z,24.30
2022-12-03T08:32:46.761Z,26.00
2022-12-03T08:35:23.006Z,25.93
2022-12-03T08:37:57.334Z,26.33
2022-12-03T08:40:29.204Z,23.43
2022-12-03T08:42:57.094Z,26.20
2022-12-03T08:45:41.700Z,27.03
2022-12-03T08:48:26.511Z,24.10
2022-12-03T08:50:56.559Z,22.90
2022-12-03T08:53:31.414Z,24.73
2022-12-03T08:56:02.538Z,26.20
2022-12-03T08:58:38.093Z,25.20
2022-12-03T09:01:42.796Z,25.93
2022-12-03T09:04:26.336Z,28.23
2022-12-03T09:06:54.922Z,28.17
2022-12-03T09:09:23.212Z,24.37
2022-12-03T09:11:51.546Z,27.37
2022-12-03T09:14:21.237Z,25.23
2022-12-03T09:16:51.951Z,25.33
2022-12-03T09:19:19.814Z,27.30
2022-12-03T09:21:47.638Z,23.33
2022-12-03T09:24:15.485Z,25.37
2022-12-03T09:26:43.295Z,24.30
2022-12-03T09:29:12.631Z,25.50
2022-12-03T09:31:40.873Z,24.47
2022-12-03T09:34:10.052Z,25.67
2022-12-03T09:36:37.985Z,24.33
2022-12-03T09:39:06.220Z,23.87
2022-12-03T09:41:33.880Z,26.67
2022-12-03T09:44:04.343Z,23.03
2022-12-03T09:46:33.631Z,24.60
2022-12-03T09:49:02.164Z,24.93
2022-12-03T09:51:34.444Z,26.13
2022-12-03T09:54:04.174Z,25.77
2022-12-03T09:56:32.257Z,26.27
2022-12-03T09:59:00.394Z,24.93
2022-12-03T10:01:30.463Z,24.90
2022-12-03T10:03:59.527Z,27.48
2022-12-03T10:06:27.580Z,25.80
2022-12-03T10:08:57.020Z,27.10
2022-12-03T10:11:27.545Z,28.20
2022-12-03T10:13:58.068Z,27.67
2022-12-03T10:16:28.115Z,25.37
2022-12-03T10:19:00.268Z,25.73
2022-12-03T10:21:32.087Z,25.03
2022-12-03T10:24:20.647Z,23.37
2022-12-03T10:26:50.173Z,26.67
2022-12-03T10:29:20.749Z,27.23
2022-12-03T10:31:56.388Z,23.33
2022-12-03T10:34:31.620Z,25.73
2022-12-03T10:37:14.855Z,24.87
2022-12-03T10:39:56.991Z,27.83
2022-12-03T10:42:25.506Z,25.20
2022-12-03T10:45:08.974Z,25.25
2022-12-03T10:47:36.894Z,24.97
2022-12-03T10:50:07.043Z,26.93
2022-12-03T10:52:34.938Z,25.23
2022-12-03T10:55:04.002Z,27.17
2022-12-03T10:57:31.779Z,29.43
2022-12-03T10:59:59.718Z,26.30
2022-12-03T11:02:28.124Z,29.48
2022-12-03T11:04:56.305Z,27.00
2022-12-03T11:07:24.945Z,25.93
2022-12-03T11:09:55.635Z,28.98
2022-12-03T11:12:27.421Z,25.17
2022-12-03T11:15:07.229Z,28.17
2022-12-03T11:17:50.642Z,26.90
2022-12-03T11:21:10.946Z,29.20
2022-12-03T11:24:18.368Z,29.37
2022-12-03T11:27:28.734Z,30.47
2022-12-03T11:30:00.041Z,29.70
2022-12-03T11:33:06.327Z,27.20
2022-12-03T11:36:05.235Z,26.77
2022-12-03T11:38:53.647Z,28.80
2022-12-03T11:41:28.179Z,30.03
2022-12-03T11:44:27.311Z,32.42
2022-12-03T11:46:58.194Z,33.53
2022-12-03T11:49:31.489Z,29.50
2022-12-03T11:51:59.618Z,34.13
2022-12-03T11:54:27.381Z,33.00
2022-12-03T11:56:56.039Z,31.88
2022-12-03T11:59:23.760Z,30.05
2022-12-03T12:01:51.580Z,30.40
2022-12-03T12:04:32.673Z,34.85
2022-12-03T12:07:01.686Z,33.03
2022-12-03T12:09:48.827Z,28.42
2022-12-03T12:12:22.084Z,33.60
2022-12-03T12:14:49.749Z,30.35
2022-12-03T12:17:33.466Z,28.73
2022-12-03T12:20:25.778Z,31.03
2022-12-03T12:22:55.324Z,32.27
2022-12-03T12:25:41.462Z,34.05
2022-12-03T12:28:09.437Z,34.63
2022-12-03T12:30:37.820Z,30.37
2022-12-03T12:33:15.095Z,35.13
2022-12-03T12:35:44.283Z,34.83
2022-12-03T12:38:17.094Z,33.97
2022-12-03T12:40:48.941Z,34.07
2022-12-03T12:43:24.355Z,36.03
2022-12-03T12:45:54.698Z,34.40
2022-12-03T12:48:25.879Z,34.63
2022-12-03T12:51:01.046Z,30.97
2022-12-03T12:53:30.491Z,32.67
2022-12-03T12:55:59.967Z,37.90
2022-12-03T12:58:31.808Z,34.00
2022-12-03T13:01:01.887Z,35.93
2022-12-03T13:03:34.882Z,33.80
2022-12-03T13:06:04.405Z,34.70
2022-12-03T13:08:38.688Z,34.77
2022-12-03T13:11:07.510Z,35.57
2022-12-03T13:13:43.651Z,34.50
2022-12-03T13:16:19.135Z,35.57
2022-12-03T13:18:48.894Z,39.67
2022-12-03T13:21:24.978Z,34.43
2022-12-03T13:23:55.592Z,37.67
2022-12-03T13:26:38.760Z,37.00
2022-12-03T13:29:14.584Z,34.67
2022-12-03T13:31:45.967Z,37.00
2022-12-03T13:34:20.139Z,35.90
2022-12-03T13:36:55.331Z,38.03
2022-12-03T13:39:29.924Z,35.00
2022-12-03T13:42:16.314Z,39.33
2022-12-03T13:44:46.615Z,38.27
2022-12-03T13:47:16.867Z,40.97
2022-12-03T13:49:52.068Z,39.53
2022-12-03T13:52:24.787Z,39.67
2022-12-03T13:54:53.884Z,40.07
2022-12-03T13:57:23.452Z,40.10
2022-12-03T13:59:51.642Z,39.40
2022-12-03T14:02:20.033Z,42.27
2022-12-03T14:04:48.067Z,41.87
2022-12-03T14:07:16.023Z,40.20
2022-12-03T14:09:45.170Z,40.60
2022-12-03T14:12:28.993Z,40.07
2022-12-03T14:14:57.344Z,43.50
2022-12-03T14:17:25.089Z,37.73
2022-12-03T14:19:53.245Z,40.27
2022-12-03T14:22:23.333Z,41.17
2022-12-03T14:24:52.754Z,41.80
2022-12-03T14:27:21.106Z,37.50
2022-12-03T14:29:48.812Z,41.63
2022-12-03T14:32:16.889Z,41.83
2022-12-03T14:34:44.767Z,42.03
2022-12-03T14:37:12.533Z,46.43
2022-12-03T14:39:40.178Z,40.63
2022-12-03T14:42:15.094Z,42.43
2022-12-03T14:44:44.326Z,41.13
2022-12-03T14:47:13.013Z,43.97
2022-12-03T14:49:41.339Z,41.13
2022-12-03T14:52:12.262Z,37.43
2022-12-03T14:54:42.269Z,38.07
2022-12-03T14:57:13.091Z,39.70
2022-12-03T14:59:41.061Z,41.10
2022-12-03T15:02:09.887Z,39.60
2022-12-03T15:04:38.252Z,41.40
2022-12-03T15:07:07.176Z,38.67
2022-12-03T15:09:35.050Z,37.97
2022-12-03T15:12:03.969Z,40.30
2022-12-03T15:14:33.213Z,42.13
2022-12-03T15:17:01.074Z,40.13
2022-12-03T15:19:28.861Z,38.83
2022-12-03T15:21:56.618Z,36.47
2022-12-03T15:24:24.627Z,39.73
2022-12-03T15:26:53.603Z,40.03
2022-12-03T15:29:21.686Z,37.67
2022-12-03T15:31:50.931Z,38.43
2022-12-03T15:34:22.537Z,41.50
2022-12-03T15:36:50.934Z,36.67
2022-12-03T15:39:18.746Z,36.53
2022-12-03T15:41:46.496Z,38.30
2022-12-03T15:44:14.335Z,39.33
2022-12-03T15:46:42.139Z,42.67
2022-12-03T15:49:11.288Z,38.10
2022-12-03T15:51:39.054Z,36.73
2022-12-03T15:54:07.233Z,38.60
2022-12-03T15:56:37.721Z,39.80
2022-12-03T15:59:05.589Z,37.03
2022-12-03T16:01:33.390Z,36.77
2022-12-03T16:04:01.567Z,38.47
2022-12-03T16:06:30.737Z,35.83
2022-12-03T16:08:58.547Z,36.03
2022-12-03T16:11:26.272Z,38.40
2022-12-03T16:13:54.118Z,37.30
2022-12-03T16:16:21.911Z,36.03
2022-12-03T16:18:49.786Z,35.77
2022-12-03T16:21:19.740Z,38.63
2022-12-03T16:23:52.671Z,37.00
2022-12-03T16:26:20.443Z,37.13
2022-12-03T16:28:49.205Z,37.17
2022-12-03T16:31:19.068Z,39.47
2022-12-03T16:33:47.082Z,37.67
2022-12-03T16:36:15.737Z,37.77
2022-12-03T16:38:43.420Z,40.43
2022-12-03T16:41:12.973Z,40.23
2022-12-03T16:43:40.712Z,37.30
2022-12-03T16:46:25.739Z,37.87
2022-12-03T16:48:55.236Z,34.90
2022-12-03T16:51:23.464Z,38.00
2022-12-03T16:53:51.252Z,38.57
2022-12-03T16:56:20.881Z,38.20
2022-12-03T16:58:48.663Z,39.67
2022-12-03T17:01:16.763Z,39.13
2022-12-03T17:03:44.660Z,39.97
2022-12-03T17:06:13.134Z,40.57
2022-12-03T17:08:47.362Z,39.13
2022-12-03T17:11:17.244Z,39.67
2022-12-03T17:13:46.727Z,41.73
2022-12-03T17:16:17.266Z,40.03
2022-12-03T17:18:45.203Z,40.13
2022-12-03T17:21:13.040Z,40.70
2022-12-03T17:23:40.732Z,39.97
2022-12-03T17:26:08.540Z,40.22
2022-12-03T17:28:36.538Z,40.67
2022-12-03T17:31:05.948Z,40.97
2022-12-03T17:33:33.777Z,39.67
2022-12-03T17:36:01.521Z,38.97
2022-12-03T17:38:32.810Z,44.40
2022-12-03T17:41:05.147Z,44.43
2022-12-03T17:43:33.003Z,41.90
2022-12-03T17:46:01.285Z,38.33
2022-12-03T17:48:31.472Z,39.60
2022-12-03T17:50:59.524Z,39.83
2022-12-03T17:53:27.231Z,35.30
2022-12-03T17:55:55.004Z,40.40
2022-12-03T17:58:22.962Z,40.20
2022-12-03T18:00:50.828Z,39.07
2022-12-03T18:03:19.083Z,38.00
2022-12-03T18:05:48.202Z,36.57
2022-12-03T18:08:16.122Z,41.40
2022-12-03T18:10:44.005Z,37.60
2022-12-03T18:13:12.001Z,37.87
2022-12-03T18:15:39.680Z,37.03
2022-12-03T18:18:07.384Z,37.70
2022-12-03T18:20:35.207Z,37.80
2022-12-03T18:23:05.033Z,37.67
2022-12-03T18:25:32.783Z,38.43
2022-12-03T18:28:00.436Z,35.50
2022-12-03T18:30:28.280Z,36.93
2022-12-03T18:32:56.496Z,36.83
2022-12-03T18:35:24.394Z,34.83
2022-12-03T18:37:52.703Z,37.40
2022-12-03T18:40:26.934Z,35.60
2022-12-03T18:42:54.734Z,36.20
2022-12-03T18:45:22.418Z,32.77
2022-12-03T18:47:50.379Z,36.17
2022-12-03T18:50:18.410Z,36.80
2022-12-03T18:52:46.162Z,36.03
2022-12-03T18:55:19.175Z,34.97
2022-12-03T18:57:48.302Z,33.10
2022-12-03T19:00:17.047Z,34.50
2022-12-03T19:03:02.475Z,34.30
2022-12-03T19:05:32.360Z,34.10
2022-12-03T19:08:00.306Z,34.53
2022-12-03T19:10:28.439Z,39.80
2022-12-03T19:12:58.020Z,33.87
2022-12-03T19:15:26.261Z,35.53
2022-12-03T19:17:54.125Z,36.67
2022-12-03T19:20:21.832Z,37.50
2022-12-03T19:22:49.674Z,35.40
2022-12-03T19:25:17.592Z,35.20
2022-12-03T19:27:45.514Z,37.43
2022-12-03T19:30:15.798Z,37.80
2022-12-03T19:32:45.181Z,36.17
2022-12-03T19:35:12.942Z,36.33
2022-12-03T19:37:40.778Z,36.57
2022-12-03T19:40:10.517Z,33.77
2022-12-03T19:42:38.444Z,36.40
2022-12-03T19:45:07.484Z,39.87
2022-12-03T19:47:37.005Z,38.83
2022-12-03T19:50:05.734Z,35.83
2022-12-03T19:52:36.229Z,35.53
2022-12-03T19:55:04.270Z,37.40
2022-12-03T19:57:32.259Z,33.20
2022-12-03T20:00:01.062Z,36.23
2022-12-03T20:02:28.996Z,37.80
2022-12-03T20:04:58.170Z,34.63
2022-12-03T20:07:26.072Z,32.67
2022-12-03T20:09:54.258Z,34.90
2022-12-03T20:12:22.322Z,37.13
2022-12-03T20:14:51.545Z,33.20
2022-12-03T20:17:19.232Z,35.60
2022-12-03T20:19:47.042Z,34.93
2022-12-03T20:22:16.270Z,32.43
2022-12-03T20:24:44.161Z,36.87
2022-12-03T20:27:11.886Z,33.83
2022-12-03T20:29:39.733Z,36.93
2022-12-03T20:32:09.022Z,32.20
2022-12-03T20:34:36.865Z,34.63
2022-12-03T20:37:04.718Z,34.73
2022-12-03T20:39:33.955Z,32.87
2022-12-03T20:42:01.655Z,33.60
2022-12-03T20:44:29.778Z,36.10
2022-12-03T20:46:57.584Z,32.47
2022-12-03T20:49:25.440Z,34.13
2022-12-03T20:51:53.215Z,30.83
2022-12-03T20:54:21.014Z,31.60
2022-12-03T20:56:51.113Z,32.70
2022-12-03T20:59:19.283Z,30.43
2022-12-03T21:01:47.152Z,31.20
2022-12-03T21:04:16.104Z,30.20
2022-12-03T21:06:43.944Z,30.87
2022-12-03T21:09:12.700Z,33.40
2022-12-03T21:11:42.566Z,31.00
2022-12-03T21:14:12.564Z,29.77
2022-12-03T21:19:30.711Z,34.80
2022-12-03T21:21:58.381Z,30.77
2022-12-03T21:24:26.130Z,31.77
2022-12-03T21:26:54.004Z,32.50
2022-12-03T21:29:23.394Z,30.30
2022-12-03T21:31:51.125Z,30.77
2022-12-03T21:34:18.954Z,33.73
2022-12-03T21:36:46.792Z,29.97
2022-12-03T21:39:14.591Z,31.60
2022-12-03T21:42:33.910Z,28.80
2022-12-03T21:44:31.628Z,29.53
2022-12-03T21:47:12.751Z,30.17
2022-12-03T21:49:42.208Z,25.73
2022-12-03T21:52:10.786Z,27.57
2022-12-03T21:54:38.534Z,28.00
2022-12-03T21:57:06.203Z,26.97
2022-12-03T21:59:35.266Z,27.07
2022-12-03T22:02:03.324Z,27.40
2022-12-03T22:04:31.097Z,27.73
2022-12-03T22:06:59.328Z,28.03
2022-12-03T22:09:27.176Z,28.00
2022-12-03T22:11:56.907Z,25.40
2022-12-03T22:14:24.807Z,25.53
2022-12-03T22:16:53.922Z,26.10
2022-12-03T22:19:23.364Z,25.30
2022-12-03T22:21:51.188Z,21.10
2022-12-03T22:24:19.470Z,23.93
2022-12-03T22:26:47.431Z,21.10
2022-12-03T22:29:15.856Z,20.30
2022-12-03T22:31:43.615Z,23.10
2022-12-03T22:34:12.876Z,22.37
2022-12-03T22:36:41.167Z,22.10
2022-12-03T22:39:08.861Z,22.40
2022-12-03T22:41:36.592Z,24.77
2022-12-03T22:44:04.864Z,18.67
2022-12-03T22:46:32.850Z,18.87
2022-12-03T22:49:06.677Z,19.63
2022-12-03T22:51:36.885Z,19.17
2022-12-03T22:54:05.554Z,18.97
2022-12-03T22:56:33.738Z,17.53
2022-12-03T22:59:01.877Z,16.40
2022-12-03T23:01:31.947Z,16.87
2022-12-03T23:04:00.999Z,16.00
2022-12-03T23:06:29.891Z,20.20
2022-12-03T23:09:00.044Z,16.10
2022-12-03T23:11:29.216Z,19.10
2022-12-03T23:13:59.066Z,16.20
2022-12-03T23:16:29.143Z,17.53
2022-12-03T23:18:58.924Z,17.20
2022-12-03T23:21:30.712Z,16.47
2022-12-03T23:24:00.594Z,16.20
2022-12-03T23:26:29.166Z,16.00
2022-12-03T23:28:57.352Z,17.37
2022-12-03T23:31:27.015Z,16.47
2022-12-03T23:33:56.017Z,17.60
2022-12-03T23:36:26.835Z,17.40
2022-12-03T23:38:55.123Z,18.70
2022-12-03T23:41:24.827Z,19.17
2022-12-03T23:43:52.706Z,17.40
2022-12-03T23:46:22.536Z,17.30
2022-12-03T23:48:51.392Z,15.60
2022-12-03T23:51:21.656Z,15.93
2022-12-03T23:53:50.921Z,15.37
2022-12-03T23:56:20.907Z,16.13
2022-12-03T23:58:50.260Z,19.23
